Time;durP1;ratioP1;P1;durP2;ratioP2;P2;SDS_P1;SDS_P2;PMS_P1;PMS_P2;Temp;Humidity;BMP_temperature;BMP_pressure;BME280_temperature;BME280_humidity;BME280_pressure;Samples;Min_cycle;Max_cycle;Signal;HPM_P1;HPM_P2
2023/11/10 00:00:34;;;;;;;11.27;7.57;;;6.00;99.90;;;;;;5050782;28;20611;-77
2023/11/10 00:03:00;;;;;;;11.73;7.68;;;6.00;99.90;;;;;;5051638;28;20043;-77
2023/11/10 00:05:26;;;;;;;13.65;7.38;;;6.00;99.90;;;;;;5053315;28;20168;-78
2023/11/10 00:07:52;;;;;;;9.50;6.97;;;6.10;99.90;;;;;;5051933;28;20207;-77
2023/11/10 00:10:17;;;;;;;10.85;7.20;;;6.10;99.90;;;;;;5053417;28;20089;-77
2023/11/10 00:12:43;;;;;;;9.55;7.97;;;6.00;99.90;;;;;;5055679;28;20039;-77
2023/11/10 00:15:09;;;;;;;11.82;7.93;;;6.00;99.90;;;;;;5054529;28;20111;-77
2023/11/10 00:17:35;;;;;;;9.98;7.22;;;6.10;99.90;;;;;;5055836;28;20671;-77
2023/11/10 00:20:01;;;;;;;10.43;7.80;;;6.00;99.90;;;;;;5056140;28;20036;-78
2023/11/10 00:22:27;;;;;;;10.85;7.70;;;6.00;99.90;;;;;;5056119;28;20033;-78
2023/11/10 00:24:55;;;;;;;9.13;7.40;;;6.10;99.90;;;;;;5056467;28;20123;-77
2023/11/10 00:27:21;;;;;;;8.88;6.70;;;6.10;99.90;;;;;;5055502;28;20040;-77
2023/11/10 00:29:47;;;;;;;115.40;13.20;;;6.00;99.90;;;;;;5056213;28;20025;-77
2023/11/10 00:32:13;;;;;;;9.90;7.32;;;6.00;99.90;;;;;;5056421;28;20115;-77
2023/11/10 00:34:40;;;;;;;10.35;7.00;;;5.90;99.90;;;;;;5055493;28;20029;-77
2023/11/10 00:37:06;;;;;;;8.60;6.20;;;6.00;99.90;;;;;;5054212;28;20013;-78
2023/11/10 00:39:33;;;;;;;12.90;7.82;;;6.00;99.90;;;;;;5056458;28;20032;-77
2023/11/10 00:41:58;;;;;;;9.90;6.75;;;5.90;99.90;;;;;;5054906;28;20028;-77
2023/11/10 00:44:24;;;;;;;10.77;7.85;;;6.00;99.90;;;;;;5055879;28;20033;-78
2023/11/10 00:46:51;;;;;;;9.60;7.35;;;6.00;99.90;;;;;;5057004;28;20398;-77
2023/11/10 00:49:17;;;;;;;10.98;7.93;;;6.00;99.90;;;;;;5055448;28;20039;-77
2023/11/10 00:51:43;;;;;;;10.32;7.38;;;6.10;99.90;;;;;;5054682;28;20033;-77
2023/11/10 00:54:09;;;;;;;10.02;7.38;;;6.10;99.90;;;;;;5055811;28;20035;-78
2023/11/10 00:56:35;;;;;;;8.38;6.45;;;6.00;99.90;;;;;;5055519;28;20049;-78
2023/11/10 00:59:01;;;;;;;8.68;6.63;;;6.00;99.90;;;;;;5054562;28;20474;-77
2023/11/10 01:01:27;;;;;;;9.32;6.60;;;6.00;99.90;;;;;;5071075;28;20039;-78
2023/11/10 01:03:56;;;;;;;8.70;6.53;;;6.00;99.90;;;;;;5055170;28;20929;-77
2023/11/10 01:06:22;;;;;;;8.00;5.80;;;6.10;99.90;;;;;;5054781;28;20044;-77
2023/11/10 01:08:48;;;;;;;8.65;6.07;;;6.10;99.90;;;;;;5056628;28;20044;-77
2023/11/10 01:11:14;;;;;;;7.55;5.93;;;6.00;99.90;;;;;;5055704;28;20394;-77
2023/11/10 01:13:40;;;;;;;9.10;6.55;;;6.10;99.90;;;;;;5054259;28;20501;-77
2023/11/10 01:16:06;;;;;;;12.48;7.20;;;6.00;99.90;;;;;;5055715;28;20064;-77
2023/11/10 01:18:32;;;;;;;10.80;6.97;;;5.90;99.90;;;;;;5055824;28;20051;-77
2023/11/10 01:20:58;;;;;;;8.45;6.68;;;5.90;99.90;;;;;;5054747;28;20064;-78
2023/11/10 01:23:23;;;;;;;10.07;6.65;;;5.90;99.90;;;;;;5055124;28;20032;-78
2023/11/10 01:25:49;;;;;;;8.00;6.25;;;6.00;99.90;;;;;;5055468;28;20062;-77
2023/11/10 01:28:15;;;;;;;9.40;6.88;;;6.00;99.90;;;;;;5054642;28;20092;-77
2023/11/10 01:30:41;;;;;;;8.25;6.38;;;6.00;99.90;;;;;;5055548;28;20032;-77
2023/11/10 01:33:07;;;;;;;9.18;7.57;;;6.00;99.90;;;;;;5055619;28;20478;-77
2023/11/10 01:35:34;;;;;;;11.52;6.93;;;5.90;99.90;;;;;;5054412;28;20032;-77
2023/11/10 01:38:00;;;;;;;9.48;6.75;;;6.00;99.90;;;;;;5054771;28;20048;-78
2023/11/10 01:40:25;;;;;;;9.32;7.38;;;6.00;99.90;;;;;;5055668;28;20036;-77
2023/11/10 01:42:52;;;;;;;11.48;7.07;;;6.00;99.90;;;;;;5053823;28;20033;-77
2023/11/10 01:45:18;;;;;;;96.90;12.88;;;6.00;99.90;;;;;;5054288;28;20044;-78
2023/11/10 01:47:45;;;;;;;13.35;8.43;;;5.90;99.90;;;;;;5055237;28;20029;-78
2023/11/10 01:50:11;;;;;;;12.52;7.88;;;5.80;99.90;;;;;;5053873;28;20033;-77
2023/11/10 01:52:39;;;;;;;9.82;7.28;;;5.80;99.90;;;;;;5054970;28;20040;-77
2023/11/10 01:55:06;;;;;;;11.23;7.68;;;5.90;99.90;;;;;;5055698;28;20039;-78
2023/11/10 01:57:32;;;;;;;10.25;7.80;;;6.00;99.90;;;;;;5054478;28;20044;-77
2023/11/10 02:00:02;;;;;;;12.15;8.63;;;6.00;99.90;;;;;;5053506;28;20044;-78
2023/11/10 02:02:27;;;;;;;11.90;7.63;;;6.00;99.90;;;;;;5055534;28;20388;-77
2023/11/10 02:04:53;;;;;;;9.98;7.38;;;5.90;99.90;;;;;;5054780;28;20025;-77
2023/11/10 02:07:19;;;;;;;12.48;8.43;;;5.90;99.90;;;;;;5054205;28;20036;-78
2023/11/10 02:09:44;;;;;;;10.43;7.47;;;6.00;99.90;;;;;;5070745;28;20021;-77
2023/11/10 02:12:10;;;;;;;11.10;7.65;;;6.10;99.90;;;;;;5054593;28;20037;-78
2023/11/10 02:14:36;;;;;;;8.75;7.10;;;6.00;99.90;;;;;;5055120;28;20040;-77
2023/11/10 02:17:02;;;;;;;9.88;7.95;;;6.00;99.90;;;;;;5055001;28;20041;-78
2023/11/10 02:19:28;;;;;;;11.38;6.82;;;6.00;99.90;;;;;;5053798;28;20131;-77
2023/11/10 02:21:53;;;;;;;10.50;8.07;;;6.10;99.90;;;;;;5053821;28;20033;-77
2023/11/10 02:24:23;;;;;;;9.32;7.40;;;6.10;99.90;;;;;;5053214;28;20037;-78
2023/11/10 02:26:48;;;;;;;12.55;8.25;;;6.10;99.90;;;;;;5053893;28;20032;-78
2023/11/10 02:29:15;;;;;;;11.63;7.93;;;6.10;99.90;;;;;;5054118;28;20040;-77
2023/11/10 02:31:41;;;;;;;11.68;8.10;;;6.10;99.90;;;;;;5055412;28;20494;-78
2023/11/10 02:34:07;;;;;;;9.65;6.90;;;6.20;99.90;;;;;;5052989;28;20044;-77
2023/11/10 02:36:34;;;;;;;10.02;7.78;;;6.10;99.90;;;;;;5054114;28;20038;-77
2023/11/10 02:39:00;;;;;;;10.30;8.27;;;6.00;99.90;;;;;;5053203;28;20398;-78
2023/11/10 02:41:26;;;;;;;11.68;7.57;;;6.00;99.90;;;;;;5054663;28;21039;-78
2023/11/10 02:43:52;;;;;;;10.27;7.22;;;6.00;99.90;;;;;;5053817;28;20044;-78
2023/11/10 02:46:18;;;;;;;9.38;7.35;;;6.10;99.90;;;;;;5055048;28;20107;-77
2023/11/10 02:48:43;;;;;;;10.70;7.20;;;6.10;99.90;;;;;;5054008;28;20115;-78
2023/11/10 02:51:09;;;;;;;12.73;8.50;;;6.00;99.90;;;;;;5053704;28;20040;-78
2023/11/10 02:53:35;;;;;;;10.50;7.97;;;6.10;99.90;;;;;;5055479;28;20037;-78
2023/11/10 02:56:01;;;;;;;11.48;7.82;;;6.10;99.90;;;;;;5053734;28;20049;-78
2023/11/10 02:58:29;;;;;;;10.13;7.57;;;5.90;99.90;;;;;;5057512;28;20053;-78
2023/11/10 03:00:54;;;;;;;10.73;8.68;;;5.90;99.90;;;;;;5058638;28;20032;-77
2023/11/10 03:03:20;;;;;;;10.35;7.47;;;6.00;99.90;;;;;;5056979;28;20043;-77
2023/11/10 03:05:46;;;;;;;11.25;8.30;;;6.00;99.90;;;;;;5058903;28;20033;-77
2023/11/10 03:08:12;;;;;;;10.88;8.93;;;6.00;99.90;;;;;;5057657;28;20039;-77
2023/11/10 03:10:38;;;;;;;10.02;7.72;;;6.00;99.90;;;;;;5057289;28;20032;-78
2023/11/10 03:13:04;;;;;;;9.55;7.05;;;6.00;99.90;;;;;;5058719;28;20043;-78
2023/11/10 03:15:30;;;;;;;10.50;8.40;;;6.00;99.90;;;;;;5058134;28;20037;-77
2023/11/10 03:17:56;;;;;;;10.68;7.60;;;6.00;99.90;;;;;;5057029;28;20075;-78
2023/11/10 03:20:23;;;;;;;10.60;7.28;;;6.10;99.90;;;;;;5058225;28;20086;-78
2023/11/10 03:22:49;;;;;;;9.93;7.47;;;6.10;99.90;;;;;;5058491;28;20036;-77
2023/11/10 03:25:15;;;;;;;10.70;7.72;;;6.20;99.90;;;;;;5057128;28;20051;-78
2023/11/10 03:27:40;;;;;;;9.73;7.88;;;6.10;99.90;;;;;;5057722;28;20041;-77
2023/11/10 03:30:08;;;;;;;10.73;8.18;;;6.10;99.90;;;;;;5057763;28;20098;-77
2023/11/10 03:32:34;;;;;;;9.98;7.88;;;6.10;99.90;;;;;;5056754;28;20032;-77
2023/11/10 03:35:00;;;;;;;10.15;7.82;;;6.10;99.90;;;;;;5057506;28;20032;-78
2023/11/10 03:37:26;;;;;;;9.20;7.28;;;6.10;99.90;;;;;;5057934;28;20062;-78
2023/11/10 03:39:51;;;;;;;10.65;8.13;;;6.10;99.90;;;;;;5056379;28;20171;-78
2023/11/10 03:42:17;;;;;;;9.45;6.80;;;6.10;99.90;;;;;;5057754;28;20892;-78
2023/11/10 03:44:43;;;;;;;10.90;7.60;;;6.10;99.90;;;;;;5057526;28;20380;-78
2023/11/10 03:47:08;;;;;;;9.38;7.00;;;6.10;99.90;;;;;;5056987;28;20045;-78
2023/11/10 03:49:35;;;;;;;9.90;7.53;;;6.00;99.90;;;;;;5055780;28;20036;-78
2023/11/10 03:52:01;;;;;;;9.98;7.20;;;6.10;99.90;;;;;;5057316;28;20032;-77
2023/11/10 03:54:27;;;;;;;11.15;7.63;;;6.10;99.90;;;;;;5056980;28;20040;-78
2023/11/10 03:56:53;;;;;;;10.35;7.18;;;6.00;99.90;;;;;;5057383;28;20041;-78
2023/11/10 03:59:19;;;;;;;10.75;7.28;;;6.00;99.90;;;;;;5057099;28;20036;-78
2023/11/10 04:01:44;;;;;;;10.02;7.43;;;6.00;99.90;;;;;;5054792;28;20028;-78
2023/11/10 04:04:10;;;;;;;11.52;7.65;;;6.10;99.90;;;;;;5052400;28;20619;-78
2023/11/10 04:06:36;;;;;;;10.23;7.35;;;6.10;99.90;;;;;;5052377;28;20433;-77
2023/11/10 04:09:02;;;;;;;11.23;7.63;;;6.10;99.90;;;;;;5050072;28;20032;-77
2023/11/10 04:11:29;;;;;;;10.57;7.85;;;6.10;99.90;;;;;;5052803;28;20046;-78
2023/11/10 04:13:55;;;;;;;10.90;7.65;;;6.20;99.90;;;;;;5053286;28;20595;-78
2023/11/10 04:16:22;;;;;;;13.30;8.40;;;6.10;99.90;;;;;;5051890;28;20036;-78
2023/11/10 04:18:53;;;;;;;12.35;8.35;;;6.10;99.90;;;;;;5049432;28;20067;-78
2023/11/10 04:21:20;;;;;;;13.77;8.43;;;5.90;99.90;;;;;;5050291;28;20082;-78
2023/11/10 04:23:46;;;;;;;11.10;8.50;;;6.00;99.90;;;;;;5049795;28;20075;-78
2023/11/10 04:26:13;;;;;;;10.85;8.10;;;6.00;99.90;;;;;;5051901;28;20118;-78
2023/11/10 04:28:43;;;;;;;10.38;7.32;;;6.00;99.90;;;;;;5053097;28;20399;-78
2023/11/10 04:31:11;;;;;;;10.07;7.60;;;6.00;99.90;;;;;;5052219;28;20098;-78
2023/11/10 04:33:37;;;;;;;7.63;5.75;;;6.10;99.90;;;;;;5050607;28;20493;-78
2023/11/10 04:36:07;;;;;;;8.32;6.13;;;6.00;99.90;;;;;;5053716;28;20041;-78
2023/11/10 04:38:33;;;;;;;10.70;5.85;;;6.00;99.90;;;;;;5052263;28;20039;-77
2023/11/10 04:41:01;;;;;;;9.18;6.90;;;6.10;99.90;;;;;;5051456;28;20029;-78
2023/11/10 04:43:27;;;;;;;7.65;5.53;;;6.10;99.90;;;;;;5051472;28;20033;-78
2023/11/10 04:45:52;;;;;;;7.65;5.28;;;6.00;99.90;;;;;;5053781;28;20048;-78
2023/11/10 04:48:18;;;;;;;6.63;5.00;;;5.90;99.90;;;;;;5051061;28;20036;-78
2023/11/10 04:50:44;;;;;;;7.90;5.65;;;6.00;99.90;;;;;;5052262;28;20458;-77
2023/11/10 04:53:09;;;;;;;8.27;4.70;;;6.00;99.90;;;;;;5052418;28;20064;-78
2023/11/10 04:55:35;;;;;;;7.97;4.95;;;5.90;99.90;;;;;;5052340;28;20052;-78
2023/11/10 04:58:01;;;;;;;8.07;5.38;;;5.90;99.90;;;;;;5052152;28;20345;-78
2023/11/10 05:00:27;;;;;;;8.18;5.45;;;6.00;99.90;;;;;;5052889;28;20218;-78
2023/11/10 05:02:53;;;;;;;8.65;5.45;;;6.00;99.90;;;;;;5051889;28;20910;-78
2023/11/10 05:05:20;;;;;;;7.82;4.60;;;6.10;99.90;;;;;;5051840;28;20032;-78
2023/11/10 05:07:45;;;;;;;6.85;5.05;;;6.10;99.90;;;;;;5052535;28;20040;-77
2023/11/10 05:10:15;;;;;;;8.05;5.53;;;6.10;99.90;;;;;;5052431;28;20051;-78
2023/11/10 05:12:41;;;;;;;8.73;6.10;;;6.00;99.90;;;;;;5052618;28;20116;-78
2023/11/10 05:15:08;;;;;;;8.35;5.68;;;6.00;99.90;;;;;;5051376;28;20040;-78
2023/11/10 05:17:39;;;;;;;8.07;5.45;;;5.80;99.90;;;;;;5053201;28;20662;-77
2023/11/10 05:20:09;;;;;;;7.43;5.28;;;5.80;99.90;;;;;;5050998;28;20773;-78
2023/11/10 05:22:36;;;;;;;8.25;6.32;;;5.90;99.90;;;;;;5050317;28;20115;-78
2023/11/10 05:25:04;;;;;;;8.65;6.47;;;6.00;99.90;;;;;;5049525;28;20501;-78
2023/11/10 05:27:30;;;;;;;7.43;5.63;;;6.10;99.90;;;;;;5048205;28;20036;-78
2023/11/10 05:29:56;;;;;;;7.03;5.20;;;5.90;99.90;;;;;;5048133;28;20039;-77
2023/11/10 05:32:22;;;;;;;8.45;5.95;;;6.00;99.90;;;;;;5049368;28;20035;-78
2023/11/10 05:34:50;;;;;;;6.22;5.25;;;6.00;99.90;;;;;;5047088;28;20378;-78
2023/11/10 05:37:18;;;;;;;8.27;5.65;;;6.00;99.90;;;;;;5047970;28;20032;-78
2023/11/10 05:39:46;;;;;;;7.95;5.35;;;6.10;99.90;;;;;;5050575;28;20032;-78
2023/11/10 05:42:13;;;;;;;11.13;8.52;;;6.00;99.90;;;;;;5051236;28;20497;-78
2023/11/10 05:44:39;;;;;;;13.15;9.50;;;6.10;99.90;;;;;;5049772;28;20031;-78
2023/11/10 05:47:04;;;;;;;8.80;6.25;;;6.10;99.90;;;;;;5050061;28;20041;-78
2023/11/10 05:49:30;;;;;;;7.97;5.45;;;6.10;99.90;;;;;;5048140;28;20055;-78
2023/11/10 05:51:56;;;;;;;8.25;5.63;;;6.10;99.90;;;;;;5050524;28;20041;-78
2023/11/10 05:54:21;;;;;;;10.35;5.35;;;6.00;99.90;;;;;;5051948;28;20434;-76
2023/11/10 05:56:47;;;;;;;7.68;6.15;;;5.90;99.90;;;;;;5050893;28;20109;-76
2023/11/10 05:59:14;;;;;;;7.90;5.43;;;5.90;99.90;;;;;;5050009;28;20064;-77
2023/11/10 06:01:39;;;;;;;8.13;5.85;;;6.00;99.90;;;;;;5051448;28;20496;-77
2023/11/10 06:04:05;;;;;;;7.90;5.50;;;5.90;99.90;;;;;;5050238;28;20178;-77
2023/11/10 06:06:31;;;;;;;10.20;6.15;;;5.90;99.90;;;;;;5050398;28;20028;-77
2023/11/10 06:08:57;;;;;;;10.00;6.22;;;5.90;99.90;;;;;;5051644;28;21114;-77
2023/11/10 06:11:23;;;;;;;9.38;6.90;;;5.90;99.90;;;;;;5052225;28;20040;-77
2023/11/10 06:13:49;;;;;;;8.23;6.95;;;5.90;99.90;;;;;;5054672;28;20446;-77
2023/11/10 06:16:16;;;;;;;11.85;6.80;;;6.00;99.90;;;;;;5050963;28;20102;-78
2023/11/10 06:18:42;;;;;;;8.35;6.32;;;5.90;99.90;;;;;;5050483;28;20575;-77
2023/11/10 06:21:09;;;;;;;9.48;6.88;;;6.00;99.90;;;;;;5050188;28;20040;-77
2023/11/10 06:23:35;;;;;;;9.25;6.57;;;6.00;99.90;;;;;;5049947;28;20036;-77
2023/11/10 06:26:01;;;;;;;8.70;6.57;;;6.00;99.90;;;;;;5046611;28;20033;-78
2023/11/10 06:28:27;;;;;;;9.75;8.18;;;6.10;99.90;;;;;;5046518;28;20059;-77
2023/11/10 06:30:52;;;;;;;10.15;7.10;;;6.10;99.90;;;;;;5047398;28;20614;-77
2023/11/10 06:33:18;;;;;;;7.80;6.60;;;6.10;99.90;;;;;;5050513;28;20567;-77
2023/11/10 06:35:44;;;;;;;9.32;6.25;;;6.00;99.90;;;;;;5050399;28;20501;-77
2023/11/10 06:38:10;;;;;;;8.68;6.53;;;6.00;99.90;;;;;;5051997;28;20491;-78
2023/11/10 06:40:35;;;;;;;8.32;6.20;;;6.10;99.90;;;;;;5050414;28;20032;-78
2023/11/10 06:43:02;;;;;;;11.40;7.47;;;6.20;99.90;;;;;;5051209;28;20040;-77
2023/11/10 06:45:28;;;;;;;9.95;7.85;;;6.20;99.90;;;;;;5052241;28;20028;-77
2023/11/10 06:47:54;;;;;;;10.85;7.03;;;6.20;99.90;;;;;;5051417;28;20486;-77
2023/11/10 06:50:20;;;;;;;9.13;6.07;;;6.20;99.90;;;;;;5051420;28;20749;-78
2023/11/10 06:52:45;;;;;;;9.93;6.28;;;6.20;99.90;;;;;;5051768;28;20039;-77
2023/11/10 06:55:13;;;;;;;9.52;6.68;;;6.10;99.90;;;;;;5049966;28;20060;-77
2023/11/10 06:57:40;;;;;;;7.57;5.80;;;6.10;99.90;;;;;;5050695;28;20524;-77
2023/11/10 07:00:09;;;;;;;9.07;5.88;;;6.20;99.90;;;;;;5052227;28;20032;-77
2023/11/10 07:02:35;;;;;;;10.55;6.22;;;6.10;99.90;;;;;;5049717;28;20036;-77
2023/11/10 07:05:01;;;;;;;8.50;6.47;;;6.20;99.90;;;;;;5050265;28;20020;-77
2023/11/10 07:07:27;;;;;;;7.88;6.20;;;6.20;99.90;;;;;;5051148;28;20108;-77
2023/11/10 07:09:53;;;;;;;6.65;5.20;;;6.30;99.90;;;;;;5051151;28;20028;-80
2023/11/10 07:12:19;;;;;;;10.80;6.25;;;6.30;99.90;;;;;;5053987;28;20028;-79
2023/11/10 07:14:44;;;;;;;7.25;5.55;;;6.30;99.90;;;;;;5051295;28;20040;-77
2023/11/10 07:17:15;;;;;;;8.90;5.90;;;6.20;99.90;;;;;;5051106;28;20043;-78
2023/11/10 07:19:40;;;;;;;8.35;6.18;;;6.20;99.90;;;;;;5050375;28;20798;-81
2023/11/10 07:22:06;;;;;;;7.60;5.68;;;6.30;99.90;;;;;;5046924;28;20040;-82
2023/11/10 07:24:32;;;;;;;7.40;5.97;;;6.30;99.90;;;;;;5050061;28;20437;-82
2023/11/10 07:26:57;;;;;;;7.57;5.75;;;6.30;99.90;;;;;;5050534;28;20138;-78
2023/11/10 07:29:23;;;;;;;7.35;5.60;;;6.40;99.90;;;;;;5051934;28;20041;-80
2023/11/10 07:31:49;;;;;;;8.27;5.97;;;6.40;99.90;;;;;;5053468;28;20029;-79
2023/11/10 07:34:14;;;;;;;9.35;7.28;;;6.30;99.90;;;;;;5051234;28;20502;-81
2023/11/10 07:36:41;;;;;;;8.70;6.72;;;6.20;99.90;;;;;;5051703;28;20048;-80
2023/11/10 07:39:06;;;;;;;10.23;7.57;;;6.20;99.90;;;;;;5051491;28;20554;-80
2023/11/10 07:41:34;;;;;;;8.65;6.13;;;6.30;99.90;;;;;;5051478;28;20090;-81
2023/11/10 07:44:00;;;;;;;8.65;6.90;;;6.30;99.90;;;;;;5050592;28;20032;-81
2023/11/10 07:46:27;;;;;;;8.98;6.30;;;6.30;99.90;;;;;;5051930;28;20032;-82
2023/11/10 07:48:53;;;;;;;8.18;6.07;;;6.20;99.90;;;;;;5051108;28;20029;-80
2023/11/10 07:51:18;;;;;;;7.63;5.43;;;6.20;99.90;;;;;;5051510;28;20039;-80
2023/11/10 07:53:44;;;;;;;6.97;4.97;;;6.20;99.90;;;;;;5051914;28;20039;-81
2023/11/10 07:56:10;;;;;;;7.43;5.85;;;6.30;99.90;;;;;;5049466;28;20063;-82
2023/11/10 07:58:36;;;;;;;8.18;5.80;;;6.30;99.90;;;;;;5051034;28;20072;-79
2023/11/10 08:01:02;;;;;;;9.07;5.97;;;6.40;99.90;;;;;;5052317;28;20761;-81
2023/11/10 08:03:28;;;;;;;7.25;5.80;;;6.50;99.90;;;;;;5051406;28;20036;-80
2023/11/10 08:05:53;;;;;;;8.55;5.70;;;6.60;99.90;;;;;;5052157;28;20470;-80
2023/11/10 08:08:19;;;;;;;8.32;5.80;;;6.70;99.90;;;;;;5048045;28;20379;-83
2023/11/10 08:10:47;;;;;;;10.30;5.70;;;6.80;99.90;;;;;;5051634;28;20865;-79
2023/11/10 08:13:13;;;;;;;7.38;5.32;;;6.80;99.90;;;;;;5052841;28;20039;-79
2023/11/10 08:15:39;;;;;;;7.35;5.43;;;6.70;99.90;;;;;;5051656;28;20036;-81
2023/11/10 08:18:04;;;;;;;6.95;5.13;;;6.70;99.90;;;;;;5050919;28;20036;-81
2023/11/10 08:20:30;;;;;;;9.15;5.07;;;6.80;99.90;;;;;;5051305;28;20032;-80
2023/11/10 08:22:56;;;;;;;6.25;4.68;;;6.80;99.90;;;;;;5051412;28;20021;-81
2023/11/10 08:25:22;;;;;;;7.57;5.40;;;6.80;99.90;;;;;;5052984;28;20107;-80
2023/11/10 08:27:48;;;;;;;7.47;5.03;;;6.80;99.90;;;;;;5053605;28;20036;-80
2023/11/10 08:30:13;;;;;;;7.03;5.40;;;6.80;99.90;;;;;;5051092;28;20042;-80
2023/11/10 08:32:40;;;;;;;7.40;5.03;;;6.80;99.90;;;;;;5052113;28;20040;-80
2023/11/10 08:35:08;;;;;;;8.73;6.43;;;6.90;99.90;;;;;;5053169;28;20139;-80
2023/11/10 08:37:34;;;;;;;8.68;6.32;;;7.00;99.90;;;;;;5053166;28;20119;-80
2023/11/10 08:40:00;;;;;;;11.50;7.07;;;7.00;99.90;;;;;;5051612;28;20068;-80
2023/11/10 08:42:26;;;;;;;9.30;7.40;;;7.00;99.90;;;;;;5053563;28;20107;-81
2023/11/10 08:44:51;;;;;;;10.05;7.45;;;7.10;99.90;;;;;;5052348;28;20036;-80
2023/11/10 08:47:17;;;;;;;10.02;6.60;;;7.20;99.90;;;;;;5049902;28;20033;-80
2023/11/10 08:49:46;;;;;;;8.88;6.70;;;7.10;99.90;;;;;;5050971;28;20428;-81
2023/11/10 08:52:14;;;;;;;8.77;5.78;;;7.10;99.90;;;;;;5050636;28;20028;-81
2023/11/10 08:54:40;;;;;;;8.48;6.00;;;7.00;99.90;;;;;;5049492;28;20048;-79
2023/11/10 08:57:06;;;;;;;12.05;6.60;;;6.90;99.90;;;;;;5052743;28;20522;-80
2023/11/10 08:59:31;;;;;;;8.00;5.20;;;7.10;99.90;;;;;;5053894;28;20171;-80
2023/11/10 09:01:58;;;;;;;13.10;8.18;;;7.10;99.90;;;;;;5054144;28;20032;-79
2023/11/10 09:04:24;;;;;;;7.72;5.43;;;7.20;99.90;;;;;;5054536;28;20052;-82
2023/11/10 09:06:50;;;;;;;5.82;4.57;;;7.20;99.90;;;;;;5054543;28;20510;-81
2023/11/10 09:09:16;;;;;;;6.78;4.53;;;7.10;99.90;;;;;;5054311;28;20054;-80
2023/11/10 09:11:42;;;;;;;8.05;5.60;;;7.00;99.90;;;;;;5053841;28;20029;-83
2023/11/10 09:14:09;;;;;;;6.47;4.68;;;7.20;99.90;;;;;;5054703;28;20801;-80
2023/11/10 09:16:35;;;;;;;6.57;4.93;;;7.20;99.90;;;;;;5054591;28;20029;-80
2023/11/10 09:19:01;;;;;;;8.32;4.60;;;7.30;99.90;;;;;;5054366;28;20093;-80
2023/11/10 09:21:27;;;;;;;6.72;5.60;;;7.40;99.90;;;;;;5054898;28;20032;-81
2023/11/10 09:23:54;;;;;;;7.82;5.22;;;7.30;99.90;;;;;;5053650;28;20040;-80
2023/11/10 09:26:20;;;;;;;7.07;4.60;;;7.30;99.90;;;;;;5053632;28;20499;-83
2023/11/10 09:28:48;;;;;;;8.43;5.22;;;7.40;99.90;;;;;;5054259;28;20036;-80
2023/11/10 09:31:14;;;;;;;6.38;4.57;;;7.40;99.90;;;;;;5053981;28;20158;-80
2023/11/10 09:33:39;;;;;;;5.95;4.38;;;7.30;99.90;;;;;;5055166;28;20024;-85
2023/11/10 09:36:06;;;;;;;9.13;5.10;;;7.50;99.90;;;;;;5054780;28;20119;-81
2023/11/10 09:38:32;;;;;;;7.97;5.18;;;7.30;99.90;;;;;;5054353;28;20045;-81
2023/11/10 09:41:02;;;;;;;7.00;4.93;;;7.30;99.90;;;;;;5054487;28;21396;-81
2023/11/10 09:43:30;;;;;;;6.85;4.95;;;7.50;99.90;;;;;;5053652;28;20058;-80
2023/11/10 09:46:01;;;;;;;6.05;4.32;;;7.70;99.90;;;;;;5054153;28;21317;-84
2023/11/10 09:48:28;;;;;;;7.50;5.00;;;7.80;99.90;;;;;;5053924;28;20025;-82
2023/11/10 09:50:56;;;;;;;7.88;5.20;;;7.70;99.90;;;;;;5054554;28;20024;-80
2023/11/10 09:53:23;;;;;;;7.82;5.80;;;7.60;99.90;;;;;;5054843;28;20037;-80
2023/11/10 09:55:50;;;;;;;6.97;4.30;;;7.50;99.90;;;;;;5052476;28;20718;-80
2023/11/10 09:58:19;;;;;;;6.88;4.93;;;7.40;99.90;;;;;;5050894;28;21006;-81
2023/11/10 10:00:48;;;;;;;7.10;4.80;;;7.50;99.90;;;;;;5049172;28;20039;-80
2023/11/10 10:03:13;;;;;;;6.65;4.43;;;7.50;99.90;;;;;;5050333;28;20487;-81
2023/11/10 10:05:40;;;;;;;11.50;6.65;;;7.60;99.90;;;;;;5048979;28;20028;-80
2023/11/10 10:08:06;;;;;;;8.65;5.57;;;7.80;99.90;;;;;;5047749;28;20078;-80
2023/11/10 10:10:33;;;;;;;7.68;5.22;;;7.90;99.90;;;;;;5049983;28;21948;-79
2023/11/10 10:13:01;;;;;;;6.03;4.60;;;8.00;99.90;;;;;;5049440;28;20032;-80
2023/11/10 10:15:29;;;;;;;6.75;4.93;;;8.00;99.90;;;;;;5049405;28;20024;-80
2023/11/10 10:18:03;;;;;;;6.97;5.22;;;8.00;99.90;;;;;;5050805;28;20131;-80
2023/11/10 10:20:29;;;;;;;8.85;4.82;;;8.00;99.90;;;;;;5050058;28;20077;-79
2023/11/10 10:22:55;;;;;;;7.43;5.22;;;8.00;99.90;;;;;;5049737;28;20551;-80
2023/11/10 10:25:21;;;;;;;8.82;5.60;;;8.00;99.90;;;;;;5050311;28;20060;-80
2023/11/10 10:27:47;;;;;;;7.10;5.88;;;7.90;99.90;;;;;;5049043;28;20090;-80
2023/11/10 10:30:13;;;;;;;8.02;5.50;;;7.90;99.90;;;;;;5049011;28;20025;-79
2023/11/10 10:32:39;;;;;;;8.35;5.32;;;7.90;99.90;;;;;;5050101;28;20036;-80
2023/11/10 10:35:07;;;;;;;9.88;5.40;;;8.00;99.90;;;;;;5046407;28;20025;-79
2023/11/10 10:37:36;;;;;;;7.60;4.75;;;8.10;99.90;;;;;;5048841;28;20035;-79
2023/11/10 10:40:02;;;;;;;8.25;5.72;;;7.90;99.90;;;;;;5049427;28;20118;-80
2023/11/10 10:42:34;;;;;;;6.78;4.57;;;7.80;99.90;;;;;;5047284;28;21356;-79
2023/11/10 10:45:02;;;;;;;6.72;4.82;;;7.90;99.90;;;;;;5048712;28;20036;-79
2023/11/10 10:47:28;;;;;;;10.35;5.20;;;8.10;99.90;;;;;;5049010;28;20036;-79
2023/11/10 10:49:56;;;;;;;6.25;4.70;;;8.10;99.90;;;;;;5048519;28;20032;-80
2023/11/10 10:52:23;;;;;;;7.78;5.13;;;8.30;99.90;;;;;;5049053;28;20648;-80
2023/11/10 10:54:49;;;;;;;6.80;4.53;;;8.30;99.90;;;;;;5050211;28;20036;-82
2023/11/10 10:57:15;;;;;;;6.00;4.63;;;8.30;99.90;;;;;;5048813;28;20572;-80
2023/11/10 10:59:43;;;;;;;6.20;4.47;;;8.20;99.90;;;;;;5049802;28;20044;-82
2023/11/10 11:02:10;;;;;;;6.00;4.72;;;8.20;99.90;;;;;;5050004;28;20032;-80
2023/11/10 11:05:00;;;;;;;8.00;5.85;;;8.20;99.90;;;;;;5048681;28;20809;-79
2023/11/10 11:07:43;;;;;;;8.35;5.85;;;8.30;99.90;;;;;;5045177;28;20040;-80
2023/11/10 11:10:37;;;;;;;8.10;5.68;;;8.40;99.90;;;;;;5048266;28;20044;-81
2023/11/10 11:13:25;;;;;;;10.90;6.05;;;8.40;99.90;;;;;;5049362;28;20103;-80
2023/11/10 11:16:14;;;;;;;8.82;6.18;;;8.40;99.90;;;;;;5050112;28;20041;-80
2023/11/10 11:19:19;;;;;;;8.57;5.95;;;8.40;99.90;;;;;;5051496;28;20502;-80
2023/11/10 11:21:47;;;;;;;8.88;5.70;;;8.40;99.90;;;;;;5051880;28;20036;-80
2023/11/10 11:24:16;;;;;;;9.82;7.03;;;8.50;99.90;;;;;;5054017;28;20029;-79
2023/11/10 11:26:52;;;;;;;8.32;6.40;;;8.40;99.90;;;;;;5054575;28;20040;-79
2023/11/10 11:29:20;;;;;;;9.38;6.97;;;8.30;99.90;;;;;;5052011;28;20042;-80
2023/11/10 11:31:46;;;;;;;8.85;6.68;;;8.40;99.90;;;;;;5052265;28;20085;-82
2023/11/10 11:34:16;;;;;;;8.20;6.15;;;8.50;99.90;;;;;;5052969;28;20032;-81
2023/11/10 11:36:47;;;;;;;8.07;6.45;;;8.30;99.90;;;;;;5052796;28;20044;-86
2023/11/10 11:39:16;;;;;;;8.88;6.47;;;8.50;99.90;;;;;;5051586;28;20049;-80
2023/11/10 11:41:53;;;;;;;9.07;6.38;;;8.40;99.90;;;;;;5054243;28;20024;-81
2023/11/10 11:44:29;;;;;;;10.75;6.20;;;8.60;99.90;;;;;;5051571;28;20054;-78
2023/11/10 11:46:56;;;;;;;14.95;13.32;;;8.70;99.90;;;;;;5047967;28;20038;-82
2023/11/10 11:49:22;;;;;;;116.45;79.85;;;8.90;99.90;;;;;;5053054;28;20029;-80
2023/11/10 11:51:49;;;;;;;22.77;15.95;;;8.90;99.90;;;;;;5050476;28;20067;-77
2023/11/10 11:54:15;;;;;;;14.13;9.35;;;8.90;99.90;;;;;;5049118;28;20033;-77
2023/11/10 11:56:42;;;;;;;12.00;8.10;;;8.70;99.90;;;;;;5050322;28;20053;-77
2023/11/10 11:59:09;;;;;;;10.40;7.43;;;8.70;99.90;;;;;;5045870;28;20103;-77
2023/11/10 12:01:38;;;;;;;8.55;6.65;;;8.60;99.90;;;;;;5049105;28;21084;-80
2023/11/10 12:04:07;;;;;;;7.65;6.45;;;8.60;99.90;;;;;;5049589;28;20606;-75
2023/11/10 12:06:34;;;;;;;93.88;61.25;;;8.80;99.90;;;;;;5050327;28;20090;-75
2023/11/10 12:09:03;;;;;;;50.58;35.20;;;8.60;99.90;;;;;;5048749;28;20029;-74
2023/11/10 12:11:30;;;;;;;23.48;16.42;;;8.70;99.90;;;;;;5048799;28;20024;-74
2023/11/10 12:13:56;;;;;;;16.65;11.57;;;8.80;99.90;;;;;;5049438;28;20066;-75
2023/11/10 12:16:22;;;;;;;13.35;9.55;;;8.80;99.90;;;;;;5048007;28;20608;-76
2023/11/10 12:18:54;;;;;;;10.00;7.47;;;8.70;99.90;;;;;;5048952;28;20074;-75
2023/11/10 12:21:20;;;;;;;14.50;7.13;;;8.70;99.90;;;;;;5049703;28;20475;-76
2023/11/10 12:23:59;;;;;;;9.02;6.93;;;8.60;99.90;;;;;;5049110;28;20044;-76
2023/11/10 12:26:33;;;;;;;10.52;7.18;;;8.70;99.90;;;;;;5049870;28;20031;-76
2023/11/10 12:29:03;;;;;;;9.52;7.38;;;8.60;99.90;;;;;;5049252;28;20556;-77
2023/11/10 12:31:29;;;;;;;10.25;7.53;;;8.60;99.90;;;;;;5049323;28;20028;-75
2023/11/10 12:33:57;;;;;;;8.70;6.75;;;8.50;99.90;;;;;;5049105;28;20033;-77
2023/11/10 12:36:22;;;;;;;7.82;6.18;;;8.60;99.90;;;;;;5048599;28;20093;-77
2023/11/10 12:38:50;;;;;;;8.00;6.28;;;8.60;99.90;;;;;;5050523;28;20040;-75
2023/11/10 12:41:16;;;;;;;7.93;5.82;;;8.60;99.90;;;;;;5048458;28;20494;-76
2023/11/10 12:43:43;;;;;;;8.40;5.35;;;8.80;99.90;;;;;;5048670;28;20123;-75
2023/11/10 12:46:12;;;;;;;7.10;5.35;;;8.60;99.90;;;;;;5049188;28;20063;-75
2023/11/10 12:48:41;;;;;;;7.50;5.50;;;8.70;99.90;;;;;;5046297;28;20040;-76
2023/11/10 12:51:09;;;;;;;9.02;5.93;;;8.60;99.90;;;;;;5047133;28;20615;-75